Terminal Aerodrome Forecast
Issued by NWS Charleston, WV

Current Version | Previous Version | Graphics & Text | Print | Product List | Glossary On
Versions: 1 2 3 4 5 6 7 8 9 10 11 12 13 14 15 16 17 18 19 20 21 22 23
240
FTUS41 KRLX 171531 AAA
TAFBKW
TAF AMD
KBKW 171531Z 1716/1812 28003KT P6SM SCT250
     FM171700 31005KT P6SM SCT050
     FM180100 14003KT P6SM SCT250=

USA.gov is the U.S. government's official web portal to all federal, state and local government web resources and services.